Volkel, Netherlands

1:31 AM CET on February 20, 2018 (GMT +0100)
Volkel Air Base

Weather History for EHVK - March, 2013

Change the Weather History Date:

Friday, March 8, 2013

  Actual Average Record
Temperature  
Mean Temperature 52 °F -  
Max Temperature 57 °F 51 °F 64 °F (2015)
Min Temperature 46 °F 36 °F 26 °F (2004)
Degree Days  
Heating Degree Days 14    
Growing Degree Days 2 (Base 50)    
Moisture  
Dew Point 46 °F    
Average Humidity 89    
Maximum Humidity 100    
Minimum Humidity 72    
Precipitation  
Precipitation 0.00 in - - ()
Sea Level Pressure  
Sea Level Pressure 29.47 in    
Wind  
Wind Speed 8 mph ()    
Max Wind Speed 14 mph    
Max Gust Speed -    
Visibility 2.7 miles    
Events Rain    
Averages and records for this station are not official NWS values.
T = Trace of Precipitation, MM = Missing Value Source: Averaged Metar Reports

Daily Weather History Graph

Daily Weather History Graph

Search for Another Location

Airport or City:

Trip Planner

Search our weather history database for the weather conditions in past years. The results will help you decide how hot, cold, wet, or windy it might be!

Date:

Astronomy

Mar. 08, 2013 Rise Set
Actual Time 7:06 AM CET 6:29 PM CET
Civil Twilight 6:33 AM CET 7:03 PM CET
Nautical Twilight 5:54 AM CET 7:42 PM CET
Astronomical Twilight 5:15 AM CET 8:21 PM CET
Moon 5:01 AM CET (3/8) 2:47 PM CET (3/8)
Length of Visible Light 12h 29m
Length of Day
11h 22m
Waning Crescent, 14% of the Moon is Illuminated
Mar 8
Waning Crescent
Mar 11
New
Mar 19
First Quarter
Mar 27
Full
Apr 3
Last Quarter

Hourly Weather History & Observations

Time (CET) Temp. Windchill Dew Point Humidity Pressure Visibility Wind Dir Wind Speed Gust Speed Precip Events Conditions
12:25 AM 46.4 °F 42.9 °F 42.8 °F 87% 29.47 in 3.1 mi East 6.9 mph - N/A   Overcast
12:55 AM 46.4 °F 42.9 °F 44.6 °F 93% 29.47 in 3.1 mi East 6.9 mph - N/A   Overcast
1:25 AM 46.4 °F 42.9 °F 44.6 °F 93% 29.47 in 3.1 mi East 6.9 mph - N/A   Overcast
1:55 AM 46.4 °F 44.3 °F 44.6 °F 93% 29.47 in 3.1 mi East 4.6 mph - N/A   Overcast
2:25 AM 46.4 °F 43.5 °F 44.6 °F 93% 29.47 in 3.1 mi East 5.8 mph - N/A   Mostly Cloudy
2:36 AM 46.4 °F 43.5 °F 44.6 °F 93% 29.47 in 3.1 mi East 5.8 mph - N/A   Overcast
2:42 AM 46.4 °F 43.5 °F 44.6 °F 93% 29.47 in - East 5.8 mph - N/A   Overcast
2:48 AM 46.4 °F 43.5 °F 44.6 °F 93% 29.47 in 3.1 mi East 5.8 mph - N/A   Overcast
2:55 AM 46.4 °F 42.9 °F 44.6 °F 93% 29.47 in 3.1 mi East 6.9 mph - N/A   Overcast
2:59 AM 46.4 °F 42.4 °F 44.6 °F 93% 29.47 in - East 8.1 mph - N/A   Overcast
3:03 AM 46.4 °F 42.9 °F 44.6 °F 93% 29.47 in 3.1 mi East 6.9 mph - N/A   Overcast
3:11 AM 46.4 °F 42.9 °F 44.6 °F 93% 29.47 in - East 6.9 mph - N/A   Overcast
3:25 AM 46.4 °F 42.9 °F 44.6 °F 93% 29.47 in - East 6.9 mph - N/A   Overcast
3:30 AM 46.4 °F 42.9 °F 44.6 °F 93% 29.47 in 3.1 mi East 6.9 mph - N/A   Overcast
3:34 AM 46.4 °F 42.9 °F 44.6 °F 93% 29.47 in - East 6.9 mph - N/A   Overcast
3:41 AM 46.4 °F 43.5 °F 44.6 °F 93% 29.47 in - East 5.8 mph - N/A   Overcast
3:45 AM 46.4 °F 44.3 °F 44.6 °F 93% 29.47 in - East 4.6 mph - N/A   Overcast
3:55 AM 46.4 °F 43.5 °F 44.6 °F 93% 29.47 in 2.8 mi East 5.8 mph - N/A   Overcast
4:08 AM 46.4 °F 42.9 °F 44.6 °F 93% 29.47 in - East 6.9 mph - N/A   Overcast
4:25 AM 46.4 °F 42.9 °F 44.6 °F 93% 29.47 in 2.5 mi East 6.9 mph - N/A   Overcast
4:50 AM 46.4 °F 43.5 °F 44.6 °F 93% 29.47 in - East 5.8 mph - N/A   Overcast
4:55 AM 46.4 °F 43.5 °F 44.6 °F 93% 29.47 in 2.5 mi East 5.8 mph - N/A   Overcast
5:03 AM 46.4 °F 43.5 °F 44.6 °F 93% 29.47 in - ENE 5.8 mph - N/A   Mostly Cloudy
5:05 AM 46.4 °F 43.5 °F 44.6 °F 93% 29.47 in - East 5.8 mph - N/A   Mostly Cloudy
5:11 AM 46.4 °F 43.5 °F 44.6 °F 93% 29.47 in - East 5.8 mph - N/A   Overcast
5:17 AM 46.4 °F 43.5 °F 44.6 °F 93% 29.47 in - East 5.8 mph - N/A   Overcast
5:25 AM 46.4 °F 42.9 °F 44.6 °F 93% 29.47 in - East 6.9 mph - N/A   Overcast
5:38 AM 46.4 °F 43.5 °F 44.6 °F 93% 29.47 in - East 5.8 mph - N/A   Overcast
5:44 AM 46.4 °F 42.9 °F 44.6 °F 93% 29.47 in - East 6.9 mph - N/A   Overcast
5:50 AM 46.4 °F 42.9 °F 44.6 °F 93% 29.47 in - East 6.9 mph - N/A   Overcast
5:55 AM 46.4 °F 42.9 °F 44.6 °F 93% 29.47 in - East 6.9 mph - N/A   Mostly Cloudy
6:04 AM 46.4 °F 42.4 °F 44.6 °F 93% 29.47 in - East 8.1 mph - N/A   Mostly Cloudy
6:09 AM 46.4 °F 42.4 °F 44.6 °F 93% 29.47 in - East 8.1 mph - N/A   Overcast
6:10 AM 46.4 °F 42.4 °F 44.6 °F 93% 29.47 in - East 8.1 mph - N/A   Overcast
6:25 AM 46.4 °F 42.4 °F 44.6 °F 93% 29.47 in 2.2 mi East 8.1 mph - N/A   Overcast
6:55 AM 46.4 °F 41.9 °F 44.6 °F 93% 29.47 in 1.9 mi East 9.2 mph - N/A   Overcast
7:25 AM 46.4 °F 41.9 °F 44.6 °F 93% 29.47 in 1.7 mi ENE 9.2 mph - N/A   Overcast
7:55 AM 46.4 °F 41.9 °F 44.6 °F 93% 29.47 in 1.7 mi East 9.2 mph - N/A   Overcast
8:14 AM 46.4 °F 42.4 °F 44.6 °F 93% 29.47 in 1.7 mi East 8.1 mph - N/A   Overcast
8:25 AM 46.4 °F 41.9 °F 44.6 °F 93% 29.47 in 1.7 mi ENE 9.2 mph - N/A   Overcast
8:55 AM 46.4 °F 42.4 °F 44.6 °F 93% 29.47 in 1.7 mi ENE 8.1 mph - N/A   Overcast
9:25 AM 48.2 °F - 44.6 °F 87% 29.47 in - East 8.1 mph - N/A   Mostly Cloudy
9:55 AM 48.2 °F - 46.4 °F 93% 29.47 in - ENE 9.2 mph - N/A   Overcast
9:59 AM 48.2 °F - 46.4 °F 93% 29.47 in - ENE 10.4 mph - N/A   Overcast
10:03 AM 48.2 °F - 46.4 °F 93% 29.47 in 2.2 mi East 10.4 mph - N/A   Overcast
10:06 AM 48.2 °F - 46.4 °F 93% 29.47 in - East 9.2 mph - N/A   Overcast
10:11 AM 48.2 °F - 46.4 °F 93% 29.47 in - East 9.2 mph - N/A   Overcast
10:16 AM 48.2 °F - 46.4 °F 93% 29.47 in - East 9.2 mph - N/A   Overcast
10:20 AM 48.2 °F - 46.4 °F 93% 29.47 in - East 9.2 mph - N/A   Overcast
10:25 AM 50.0 °F - 46.4 °F 87% 29.47 in - East 9.2 mph - N/A   Overcast
10:38 AM 50.0 °F - 46.4 °F 87% 29.47 in - East 9.2 mph - N/A   Mostly Cloudy
10:55 AM 50.0 °F - 46.4 °F 87% 29.47 in - East 9.2 mph - N/A   Partly Cloudy
11:25 AM 51.8 °F - 48.2 °F 88% 29.47 in 2.8 mi East 10.4 mph - N/A   Mostly Cloudy
11:30 AM 51.8 °F - 48.2 °F 88% 29.47 in 3.1 mi East 10.4 mph - N/A   Partly Cloudy
11:35 AM 51.8 °F - 46.4 °F 82% 29.47 in - East 11.5 mph - N/A   Scattered Clouds
11:41 AM 51.8 °F - 48.2 °F 88% 29.47 in 3.1 mi East 11.5 mph - N/A   Mostly Cloudy
11:45 AM 51.8 °F - 48.2 °F 88% 29.47 in - East 11.5 mph - N/A   Overcast
11:47 AM 53.6 °F - 48.2 °F 82% 29.47 in 3.1 mi East 11.5 mph - N/A   Overcast
11:55 AM 53.6 °F - 48.2 °F 82% 29.47 in 3.1 mi East 11.5 mph - N/A   Mostly Cloudy
12:08 PM 53.6 °F - 48.2 °F 82% 29.47 in 3.1 mi East 10.4 mph - N/A   Scattered Clouds
12:25 PM 53.6 °F - 48.2 °F 82% 29.47 in 3.1 mi East 11.5 mph - N/A   Partly Cloudy
12:55 PM 55.4 °F - 48.2 °F 77% 29.47 in 3.1 mi East 11.5 mph - N/A   Mist
1:25 PM 57.2 °F - 48.2 °F 72% 29.47 in 3.7 mi East 11.5 mph - N/A   Haze
1:55 PM 55.4 °F - 48.2 °F 77% 29.47 in 3.7 mi East 11.5 mph - N/A   Haze
2:25 PM 55.4 °F - 48.2 °F 77% 29.47 in 3.7 mi East 12.7 mph - N/A   Haze
2:55 PM 57.2 °F - 50.0 °F 77% 29.44 in 3.7 mi East 12.7 mph - N/A   Haze
3:25 PM 57.2 °F - 48.2 °F 72% 29.44 in 3.1 mi ENE 12.7 mph - N/A   Haze
3:39 PM 55.4 °F - 48.2 °F 77% 29.47 in 3.1 mi East 12.7 mph - N/A   Haze
3:55 PM 57.2 °F - 48.2 °F 72% 29.47 in 3.1 mi ENE 13.8 mph - N/A   Haze
4:25 PM 55.4 °F - 48.2 °F 77% 29.47 in 3.1 mi East 12.7 mph - N/A   Haze
4:55 PM 55.4 °F - 46.4 °F 72% 29.47 in 3.1 mi ENE 12.7 mph - N/A   Haze
5:25 PM 55.4 °F - 48.2 °F 77% 29.47 in 3.1 mi ENE 11.5 mph - N/A   Haze
5:41 PM 53.6 °F - 46.4 °F 77% 29.47 in - ENE 11.5 mph - N/A   Haze
5:43 PM 53.6 °F - 46.4 °F 77% 29.47 in 3.1 mi ENE 11.5 mph - N/A   Haze
5:46 PM 53.6 °F - 48.2 °F 82% 29.47 in - ENE 11.5 mph - N/A Rain Light Rain
5:55 PM 53.6 °F - 48.2 °F 82% 29.47 in - ENE 10.4 mph - N/A   Light Drizzle
5:57 PM 51.8 °F - 48.2 °F 88% 29.47 in 3.1 mi ENE 10.4 mph - N/A   Light Drizzle
6:00 PM 51.8 °F - 46.4 °F 82% 29.47 in - ENE 10.4 mph - N/A   Haze
6:15 PM 51.8 °F - 46.4 °F 82% 29.47 in 3.1 mi East 11.5 mph - N/A   Haze
6:20 PM 51.8 °F - 46.4 °F 82% 29.47 in - ENE 10.4 mph - N/A   Haze
6:25 PM 51.8 °F - 46.4 °F 82% 29.47 in - ENE 11.5 mph - N/A   Haze
6:36 PM 51.8 °F - 46.4 °F 82% 29.47 in 3.1 mi ENE 12.7 mph - N/A   Haze
6:40 PM 51.8 °F - 46.4 °F 82% 29.47 in - ENE 11.5 mph - N/A   Haze
6:46 PM 51.8 °F - 46.4 °F 82% 29.47 in 3.1 mi ENE 10.4 mph - N/A   Haze
6:55 PM 51.8 °F - 46.4 °F 82% 29.47 in - ENE 10.4 mph - N/A   Overcast
7:25 PM 50.0 °F - 46.4 °F 87% 29.47 in - ENE 11.5 mph - N/A   Mostly Cloudy
7:48 PM 50.0 °F - 46.4 °F 87% 29.47 in 3.1 mi ENE 11.5 mph - N/A   Overcast
7:55 PM 50.0 °F - 46.4 °F 87% 29.47 in - ENE 11.5 mph - N/A   Overcast
8:02 PM 50.0 °F - 46.4 °F 87% 29.47 in 3.1 mi ENE 11.5 mph - N/A   Overcast
8:08 PM 50.0 °F - 46.4 °F 87% 29.47 in - ENE 10.4 mph - N/A   Mostly Cloudy
8:25 PM 50.0 °F - 46.4 °F 87% 29.47 in - ENE 12.7 mph - N/A   Light Drizzle
8:29 PM 50.0 °F - 46.4 °F 87% 29.47 in 3.1 mi ENE 11.5 mph - N/A   Overcast
8:33 PM 50.0 °F - 46.4 °F 87% 29.47 in - ENE 11.5 mph - N/A   Mostly Cloudy
8:38 PM 48.2 °F - 46.4 °F 93% 29.47 in 3.1 mi ENE 10.4 mph - N/A   Mostly Cloudy
8:44 PM 48.2 °F - 46.4 °F 93% 29.47 in - ENE 10.4 mph - N/A   Mostly Cloudy
8:55 PM 48.2 °F - 46.4 °F 93% 29.47 in 2.8 mi ENE 9.2 mph - N/A   Mostly Cloudy
9:25 PM 48.2 °F - 44.6 °F 87% 29.47 in - ENE 10.4 mph - N/A Rain Light Rain
9:55 PM 48.2 °F - 44.6 °F 87% 29.47 in - ENE 9.2 mph - N/A   Overcast
10:03 PM 48.2 °F - 44.6 °F 87% 29.47 in 2.2 mi ENE 9.2 mph - N/A   Drizzle
10:25 PM 46.4 °F 42.4 °F 44.6 °F 93% 29.47 in - ENE 8.1 mph - N/A Rain Light Rain
10:37 PM 46.4 °F 42.4 °F 46.4 °F 100% 29.50 in 1.9 mi East 8.1 mph - N/A Rain Rain
10:44 PM 46.4 °F 42.4 °F 46.4 °F 100% 29.47 in 1.8 mi ENE 8.1 mph - N/A Rain Light Rain
10:55 PM 46.4 °F 42.4 °F 46.4 °F 100% 29.47 in 1.7 mi ENE 8.1 mph - N/A Rain Light Rain
11:25 PM 46.4 °F 41.9 °F 46.4 °F 100% 29.47 in 1.5 mi East 9.2 mph - N/A   Light Drizzle
11:36 PM 46.4 °F 41.9 °F 46.4 °F 100% 29.47 in 1.5 mi ENE 9.2 mph - N/A Rain Light Rain
11:37 PM 46.4 °F 41.9 °F 46.4 °F 100% 29.47 in 1.4 mi ENE 9.2 mph - N/A Rain Rain
11:55 PM 46.4 °F 41.5 °F 44.6 °F 93% 29.47 in 1.3 mi ENE 10.4 mph - N/A Rain Light Rain